createdAt,value
2018-07-02T00:01:19.339Z,34.30
2018-07-02T00:03:47.974Z,35.20
2018-07-02T00:07:21.762Z,35.00
2018-07-02T00:09:50.804Z,34.30
2018-07-02T00:12:20.237Z,34.10
2018-07-02T00:14:49.933Z,32.80
2018-07-02T00:17:18.578Z,32.40
2018-07-02T00:19:47.298Z,32.20
2018-07-02T00:22:16.408Z,32.00
2018-07-02T00:24:44.886Z,31.40
2018-07-02T00:27:13.356Z,39.40
2018-07-02T00:29:41.883Z,46.70
2018-07-02T00:32:10.328Z,31.50
2018-07-02T00:34:38.842Z,31.20
2018-07-02T00:37:07.374Z,31.80
2018-07-02T00:39:35.839Z,31.20
2018-07-02T00:42:04.353Z,30.60
2018-07-02T00:44:33.024Z,31.60
2018-07-02T00:47:01.499Z,31.40
2018-07-02T00:49:29.993Z,31.00
2018-07-02T00:51:59.455Z,31.10
2018-07-02T00:54:28.074Z,31.00
2018-07-02T00:56:56.843Z,44.60
2018-07-02T00:59:25.382Z,31.70
2018-07-02T01:01:53.865Z,32.50
2018-07-02T01:04:22.391Z,31.90
2018-07-02T01:06:50.870Z,31.40
2018-07-02T01:09:19.334Z,31.50
2018-07-02T01:11:47.827Z,30.10
2018-07-02T01:14:16.284Z,31.60
2018-07-02T01:16:44.778Z,30.40
2018-07-02T01:19:13.256Z,29.90
2018-07-02T01:21:41.751Z,29.50
2018-07-02T01:24:10.217Z,29.80
2018-07-02T01:26:38.699Z,29.30
2018-07-02T01:29:07.190Z,29.90
2018-07-02T01:31:35.692Z,29.40
2018-07-02T01:34:04.202Z,30.50
2018-07-02T01:36:32.670Z,29.30
2018-07-02T01:39:01.148Z,29.50
2018-07-02T01:41:29.629Z,30.50
2018-07-02T01:43:58.099Z,29.90
2018-07-02T01:46:26.575Z,29.50
2018-07-02T01:48:55.235Z,30.10
2018-07-02T01:51:23.700Z,29.20
2018-07-02T01:53:52.193Z,30.30
2018-07-02T01:56:20.643Z,29.30
2018-07-02T01:58:49.146Z,30.50
2018-07-02T02:01:17.938Z,30.40
2018-07-02T02:03:46.410Z,29.70
2018-07-02T02:06:14.878Z,35.70
2018-07-02T02:08:43.369Z,30.30
2018-07-02T02:11:11.834Z,29.70
2018-07-02T02:13:40.412Z,31.00
2018-07-02T02:16:08.922Z,31.40
2018-07-02T02:18:37.549Z,32.50
2018-07-02T02:21:06.011Z,30.60
2018-07-02T02:23:34.511Z,30.50
2018-07-02T02:26:02.998Z,33.30
2018-07-02T02:28:31.457Z,32.70
2018-07-02T02:33:28.102Z,23.20
2018-07-02T02:35:56.562Z,30.50
2018-07-02T02:38:25.102Z,31.60
2018-07-02T02:40:53.591Z,31.60
2018-07-02T02:43:22.042Z,31.00
2018-07-02T02:45:50.529Z,30.00
2018-07-02T02:48:19.107Z,42.30
2018-07-02T02:50:47.641Z,32.80
2018-07-02T02:53:16.126Z,46.50
2018-07-02T02:55:44.590Z,32.10
2018-07-02T02:58:13.087Z,31.60
2018-07-02T03:00:41.558Z,33.30
2018-07-02T03:03:10.060Z,33.30
2018-07-02T03:05:38.528Z,32.80
2018-07-02T03:08:07.022Z,33.40
2018-07-02T03:10:35.481Z,34.80
2018-07-02T03:13:03.958Z,34.90
2018-07-02T03:15:32.434Z,36.40
2018-07-02T03:18:00.920Z,37.30
2018-07-02T03:20:29.448Z,36.70
2018-07-02T03:22:57.850Z,37.80
2018-07-02T03:25:26.351Z,54.10
2018-07-02T03:27:54.806Z,40.70
2018-07-02T03:30:23.303Z,42.30
2018-07-02T03:32:51.774Z,42.90
2018-07-02T03:35:20.476Z,43.20
2018-07-02T03:40:17.208Z,44.10
2018-07-02T03:42:45.670Z,43.70
2018-07-02T03:45:14.138Z,44.70
2018-07-02T03:47:42.587Z,46.90
2018-07-02T03:50:11.068Z,45.40
2018-07-02T03:55:07.815Z,47.00
2018-07-02T03:57:36.309Z,49.00
2018-07-02T04:00:04.939Z,49.70
2018-07-02T04:02:33.470Z,54.10
2018-07-02T04:05:01.995Z,52.40
2018-07-02T04:07:30.475Z,60.40
2018-07-02T04:09:58.997Z,53.60
2018-07-02T04:12:27.578Z,55.20
2018-07-02T04:14:56.191Z,56.10
2018-07-02T04:17:24.687Z,54.60
2018-07-02T04:19:53.185Z,81.20
2018-07-02T04:22:21.683Z,61.30
2018-07-02T04:24:50.131Z,78.30
2018-07-02T04:27:19.331Z,69.70
2018-07-02T04:29:47.793Z,66.20
2018-07-02T04:32:16.260Z,68.50
2018-07-02T04:34:44.758Z,72.90
2018-07-02T04:37:13.357Z,68.90
2018-07-02T04:39:41.854Z,72.10
2018-07-02T04:42:10.308Z,72.50
2018-07-02T04:44:38.809Z,70.90
2018-07-02T04:47:07.423Z,74.80
2018-07-02T04:49:35.910Z,80.20
2018-07-02T04:52:04.491Z,76.80
2018-07-02T04:54:33.287Z,76.30
2018-07-02T04:57:01.856Z,77.30
2018-07-02T04:59:30.443Z,79.50
2018-07-02T05:01:58.903Z,81.10
2018-07-02T05:04:27.372Z,85.80
2018-07-02T05:06:55.822Z,84.30
2018-07-02T05:09:24.396Z,79.10
2018-07-02T05:11:52.873Z,81.80
2018-07-02T05:14:21.329Z,82.40
2018-07-02T05:16:49.893Z,86.10
2018-07-02T05:19:18.360Z,88.20
2018-07-02T05:21:46.832Z,84.00
2018-07-02T05:24:15.310Z,90.40
2018-07-02T05:26:43.902Z,92.10
2018-07-02T05:29:12.439Z,94.10
2018-07-02T05:31:40.924Z,97.10
2018-07-02T05:34:09.486Z,97.70
2018-07-02T05:36:38.285Z,97.80
2018-07-02T05:39:09.411Z,93.70
2018-07-02T05:41:38.460Z,92.60
2018-07-02T05:44:07.549Z,93.10
2018-07-02T05:46:36.098Z,93.70
2018-07-02T05:49:04.723Z,92.30
2018-07-02T05:51:33.323Z,95.40
2018-07-02T05:54:01.803Z,90.80
2018-07-02T05:56:30.312Z,87.80
2018-07-02T05:58:58.782Z,87.80
2018-07-02T06:01:27.275Z,91.10
2018-07-02T06:03:55.753Z,95.50
2018-07-02T06:06:24.350Z,93.60
2018-07-02T06:08:52.890Z,88.20
2018-07-02T06:11:21.393Z,87.70
2018-07-02T06:13:49.940Z,85.30
2018-07-02T06:16:18.416Z,91.20
2018-07-02T06:18:46.896Z,86.40
2018-07-02T06:21:15.442Z,86.70
2018-07-02T06:23:43.880Z,85.30
2018-07-02T06:26:12.347Z,84.60
2018-07-02T06:28:40.820Z,84.40
2018-07-02T06:31:09.323Z,86.00
2018-07-02T06:33:37.854Z,88.10
2018-07-02T06:36:06.334Z,90.80
2018-07-02T06:38:34.845Z,91.80
2018-07-02T06:41:03.301Z,93.70
2018-07-02T06:43:31.798Z,94.10
2018-07-02T06:48:28.515Z,96.90
2018-07-02T06:50:56.994Z,98.50
2018-07-02T06:53:25.485Z,99.50
2018-07-02T06:55:53.969Z,99.80
2018-07-02T06:58:22.454Z,99.90
2018-07-02T07:00:50.967Z,99.90
2018-07-02T07:03:19.438Z,99.90
2018-07-02T07:05:47.925Z,99.90
2018-07-02T07:08:16.387Z,99.90
2018-07-02T07:10:44.850Z,99.90
2018-07-02T07:13:13.387Z,99.90
2018-07-02T07:15:42.028Z,99.90
2018-07-02T07:18:10.650Z,99.90
2018-07-02T07:20:39.113Z,99.90
2018-07-02T07:23:07.577Z,99.90
2018-07-02T07:25:36.341Z,99.90
2018-07-02T07:28:04.813Z,99.90
2018-07-02T07:30:33.259Z,99.90
2018-07-02T07:33:01.784Z,99.90
2018-07-02T07:35:30.293Z,99.90
2018-07-02T07:37:58.776Z,99.90
2018-07-02T07:40:27.229Z,99.90
2018-07-02T07:42:55.699Z,99.90
2018-07-02T07:45:24.247Z,99.90
2018-07-02T07:47:52.767Z,99.90
2018-07-02T07:50:21.387Z,99.90
2018-07-02T07:52:49.947Z,99.90
2018-07-02T07:55:18.427Z,99.90
2018-07-02T07:57:47.025Z,99.90
2018-07-02T08:00:15.536Z,99.90
2018-07-02T08:02:44.078Z,99.90
2018-07-02T08:05:12.568Z,99.90
2018-07-02T08:07:41.031Z,99.90
2018-07-02T08:10:09.522Z,99.90
2018-07-02T08:12:37.993Z,99.90
2018-07-02T08:17:34.587Z,99.90
2018-07-02T08:20:03.142Z,99.90
2018-07-02T08:22:31.605Z,99.90
2018-07-02T08:25:00.090Z,99.90
2018-07-02T08:27:28.565Z,99.90
2018-07-02T08:29:57.098Z,99.90
2018-07-02T08:32:25.708Z,99.90
2018-07-02T08:34:54.182Z,99.90
2018-07-02T08:37:22.638Z,99.90
2018-07-02T08:39:51.308Z,99.90
2018-07-02T08:42:19.951Z,99.90
2018-07-02T08:44:48.681Z,99.90
2018-07-02T08:47:17.158Z,99.90
2018-07-02T08:49:45.615Z,99.90
2018-07-02T08:52:14.241Z,99.90
2018-07-02T08:54:42.950Z,99.90
2018-07-02T08:57:11.432Z,99.90
2018-07-02T08:59:39.952Z,99.90
2018-07-02T09:02:08.434Z,99.90
2018-07-02T09:07:05.318Z,99.90
2018-07-02T09:09:33.957Z,99.90
2018-07-02T09:12:02.475Z,99.90
2018-07-02T09:14:31.341Z,99.90
2018-07-02T09:17:00.160Z,99.90
2018-07-02T09:19:28.758Z,99.90
2018-07-02T09:21:57.380Z,99.90
2018-07-02T09:24:26.104Z,99.90
2018-07-02T09:26:54.721Z,99.90
2018-07-02T09:29:23.349Z,99.90
2018-07-02T09:31:51.994Z,99.90
2018-07-02T09:34:20.655Z,99.90
2018-07-02T09:36:49.303Z,99.90
2018-07-02T09:39:18.002Z,99.90
2018-07-02T09:41:46.488Z,99.90
2018-07-02T09:44:15.030Z,99.90
2018-07-02T09:46:43.619Z,99.90
2018-07-02T09:49:12.215Z,99.90
2018-07-02T09:51:41.048Z,99.90
2018-07-02T09:56:37.819Z,99.90
2018-07-02T09:59:06.583Z,99.90
2018-07-02T10:01:34.983Z,99.90
2018-07-02T10:04:03.490Z,99.90
2018-07-02T10:06:32.045Z,99.90
2018-07-02T10:09:00.493Z,99.90
2018-07-02T10:11:28.957Z,99.90
2018-07-02T10:13:57.435Z,99.90
2018-07-02T10:16:26.165Z,99.90
2018-07-02T10:18:54.634Z,99.90
2018-07-02T10:21:23.175Z,99.90
2018-07-02T10:23:51.634Z,99.90
2018-07-02T10:26:20.161Z,99.90
2018-07-02T10:28:48.737Z,99.90
2018-07-02T10:31:17.238Z,99.90
2018-07-02T10:33:45.716Z,99.90
2018-07-02T10:36:14.220Z,99.90
2018-07-02T10:38:42.695Z,99.90
2018-07-02T10:41:11.276Z,99.90
2018-07-02T10:43:39.760Z,99.90
2018-07-02T10:46:08.329Z,99.90
2018-07-02T10:48:36.797Z,99.90
2018-07-02T10:51:05.387Z,99.90
2018-07-02T10:53:33.984Z,99.90
2018-07-02T10:56:02.593Z,99.90
2018-07-02T10:58:31.060Z,99.90
2018-07-02T11:00:59.644Z,99.90
2018-07-02T11:03:28.137Z,99.90
2018-07-02T11:05:56.773Z,99.90
2018-07-02T11:08:25.250Z,99.90
2018-07-02T11:10:53.813Z,99.90
2018-07-02T11:15:50.582Z,99.90
2018-07-02T11:20:47.231Z,99.90
2018-07-02T11:23:15.718Z,99.90
2018-07-02T11:25:44.168Z,99.90
2018-07-02T11:28:12.682Z,99.90
2018-07-02T11:30:41.141Z,99.90
2018-07-02T11:33:09.618Z,99.90
2018-07-02T11:35:38.818Z,99.90
2018-07-02T11:38:07.290Z,99.90
2018-07-02T11:40:35.942Z,99.90
2018-07-02T11:43:04.467Z,99.90
2018-07-02T11:45:32.935Z,99.90
2018-07-02T11:48:01.415Z,99.90
2018-07-02T11:50:29.867Z,99.90
2018-07-02T11:52:59.523Z,99.90
2018-07-02T11:55:27.993Z,99.90
2018-07-02T11:57:56.476Z,99.90
2018-07-02T12:00:25.011Z,99.90
2018-07-02T12:02:53.486Z,99.90
2018-07-02T12:05:21.981Z,99.90
2018-07-02T12:07:50.455Z,99.90
2018-07-02T12:12:47.012Z,99.90
2018-07-02T12:15:15.598Z,99.90
2018-07-02T12:17:44.225Z,99.90
2018-07-02T12:20:12.700Z,99.90
2018-07-02T12:22:41.136Z,99.90
2018-07-02T12:25:09.609Z,99.90
2018-07-02T12:27:38.145Z,99.90
2018-07-02T12:30:06.633Z,99.90
2018-07-02T12:32:35.111Z,99.90
2018-07-02T12:35:03.711Z,99.90
2018-07-02T12:37:32.209Z,99.90
2018-07-02T12:40:00.686Z,99.90
2018-07-02T12:42:29.220Z,99.90
2018-07-02T12:44:57.679Z,99.90
2018-07-02T12:47:26.288Z,99.90
2018-07-02T12:49:54.859Z,99.90
2018-07-02T12:52:23.370Z,99.90
2018-07-02T12:54:51.973Z,99.90
2018-07-02T12:57:20.462Z,99.90
2018-07-02T12:59:48.951Z,99.90
2018-07-02T13:02:17.483Z,99.90
2018-07-02T13:04:45.975Z,99.90
2018-07-02T13:07:14.705Z,99.90
2018-07-02T13:09:43.305Z,99.90
2018-07-02T13:12:11.872Z,99.90
2018-07-02T13:14:40.445Z,99.90
2018-07-02T13:17:09.106Z,99.90
2018-07-02T13:19:37.595Z,99.90
2018-07-02T13:22:06.111Z,99.90
2018-07-02T13:24:34.894Z,99.90
2018-07-02T13:27:03.390Z,99.90
2018-07-02T13:29:32.004Z,99.90
2018-07-02T13:32:00.573Z,99.90
2018-07-02T13:34:29.086Z,99.90
2018-07-02T13:36:57.602Z,99.90
2018-07-02T13:39:26.169Z,99.90
2018-07-02T13:41:54.804Z,99.90
2018-07-02T13:44:23.272Z,99.90
2018-07-02T13:46:51.824Z,99.90
2018-07-02T13:49:20.274Z,99.90
2018-07-02T13:51:48.851Z,99.90
2018-07-02T13:54:17.339Z,99.90
2018-07-02T13:56:45.820Z,99.90
2018-07-02T14:01:42.697Z,99.90
2018-07-02T14:04:11.161Z,99.90
2018-07-02T14:06:39.656Z,99.90
2018-07-02T14:09:10.372Z,99.90
2018-07-02T14:11:39.759Z,99.90
2018-07-02T14:14:08.334Z,99.90
2018-07-02T14:16:37.012Z,99.90
2018-07-02T14:19:06.336Z,99.90
2018-07-02T14:21:34.810Z,99.90
2018-07-02T14:24:03.367Z,99.90
2018-07-02T14:26:31.912Z,99.90
2018-07-02T14:29:00.476Z,99.90
2018-07-02T14:31:28.950Z,99.90
2018-07-02T14:33:57.578Z,99.90
2018-07-02T14:36:26.153Z,99.90
2018-07-02T14:38:54.645Z,99.90
2018-07-02T14:41:23.160Z,99.90
2018-07-02T14:43:51.741Z,99.90
2018-07-02T14:46:20.256Z,99.90
2018-07-02T14:48:48.896Z,99.90
2018-07-02T14:51:17.515Z,99.90
2018-07-02T14:53:46.004Z,99.90
2018-07-02T14:56:14.735Z,99.90
2018-07-02T14:58:43.199Z,99.90
2018-07-02T15:01:11.675Z,99.90
2018-07-02T15:03:40.137Z,99.90
2018-07-02T15:06:08.646Z,99.90
2018-07-02T15:08:37.181Z,99.90
2018-07-02T15:11:05.889Z,99.90
2018-07-02T15:13:34.330Z,99.90
2018-07-02T15:16:02.786Z,99.90
2018-07-02T15:18:31.336Z,99.90
2018-07-02T15:21:00.388Z,99.90
2018-07-02T15:23:28.898Z,99.90
2018-07-02T15:25:57.481Z,99.90
2018-07-02T15:28:25.945Z,99.90
2018-07-02T15:30:54.554Z,99.90
2018-07-02T15:33:23.264Z,99.90
2018-07-02T15:35:51.788Z,99.90
2018-07-02T15:38:20.309Z,99.90
2018-07-02T15:40:48.928Z,99.90
2018-07-02T15:43:17.456Z,99.90
2018-07-02T15:45:45.999Z,99.90
2018-07-02T15:48:14.577Z,99.90
2018-07-02T15:50:43.065Z,99.90
2018-07-02T15:53:11.718Z,99.90
2018-07-02T15:55:40.240Z,99.90
2018-07-02T15:58:08.787Z,99.90
2018-07-02T16:00:37.284Z,99.90
2018-07-02T16:03:05.824Z,99.90
2018-07-02T16:05:34.310Z,99.90
2018-07-02T16:08:02.763Z,99.90
2018-07-02T16:10:31.352Z,99.90
2018-07-02T16:13:00.177Z,99.90
2018-07-02T16:15:28.714Z,99.90
2018-07-02T16:17:57.207Z,99.90
2018-07-02T16:20:25.696Z,99.90
2018-07-02T16:22:54.452Z,99.90
2018-07-02T16:25:23.292Z,99.90
2018-07-02T16:27:51.800Z,99.90
2018-07-02T16:30:20.395Z,99.90
2018-07-02T16:32:48.890Z,99.90
2018-07-02T16:40:13.929Z,99.90
2018-07-02T16:42:42.466Z,99.90
2018-07-02T16:45:11.111Z,99.90
2018-07-02T16:47:39.601Z,99.90
2018-07-02T16:50:08.483Z,99.90
2018-07-02T16:52:37.001Z,99.90
2018-07-02T16:55:05.603Z,99.90
2018-07-02T16:57:34.155Z,99.90
2018-07-02T17:00:02.732Z,99.90
2018-07-02T17:02:31.217Z,99.90
2018-07-02T17:04:59.830Z,99.90
2018-07-02T17:07:28.395Z,99.90
2018-07-02T17:09:57.069Z,99.90
2018-07-02T17:12:25.659Z,99.90
2018-07-02T17:14:54.156Z,99.90
2018-07-02T17:17:22.643Z,99.90
2018-07-02T17:19:51.146Z,99.90
2018-07-02T17:22:19.792Z,99.90
2018-07-02T17:24:48.523Z,99.90
2018-07-02T17:27:17.006Z,99.90
2018-07-02T17:29:45.579Z,99.90
2018-07-02T17:32:14.237Z,99.90
2018-07-02T17:34:42.721Z,99.90
2018-07-02T17:37:11.236Z,99.90
2018-07-02T17:39:39.820Z,99.90
2018-07-02T17:42:08.342Z,99.90
2018-07-02T17:44:36.852Z,99.90
2018-07-02T17:47:05.578Z,99.90
2018-07-02T17:49:34.100Z,99.90
2018-07-02T17:52:02.665Z,99.90
2018-07-02T17:54:31.166Z,99.90
2018-07-02T17:56:59.660Z,99.90
2018-07-02T17:59:28.199Z,99.90
2018-07-02T18:01:56.807Z,99.90
2018-07-02T18:04:25.315Z,99.90
2018-07-02T18:06:53.892Z,99.90
2018-07-02T18:09:22.350Z,99.90
2018-07-02T18:11:50.906Z,99.90
2018-07-02T18:14:19.501Z,99.90
2018-07-02T18:16:48.012Z,99.90
2018-07-02T18:19:16.648Z,99.90
2018-07-02T18:21:45.177Z,99.90
2018-07-02T18:24:13.680Z,99.90
2018-07-02T18:26:42.209Z,99.90
2018-07-02T18:29:10.732Z,99.90
2018-07-02T18:31:39.298Z,99.90
2018-07-02T18:34:08.062Z,99.90
2018-07-02T18:36:36.576Z,99.90
2018-07-02T18:39:08.293Z,99.90
2018-07-02T18:41:36.974Z,99.90
2018-07-02T18:44:05.899Z,99.90
2018-07-02T18:46:34.438Z,99.90
2018-07-02T18:49:03.017Z,99.90
2018-07-02T18:51:31.593Z,99.90
2018-07-02T18:54:00.172Z,99.90
2018-07-02T18:56:28.848Z,99.90
2018-07-02T18:58:57.481Z,99.90
2018-07-02T19:01:26.090Z,99.90
2018-07-02T19:03:54.716Z,99.90
2018-07-02T19:06:23.393Z,99.90
2018-07-02T19:08:52.021Z,99.90
2018-07-02T19:11:20.950Z,99.90
2018-07-02T19:13:49.595Z,99.90
2018-07-02T19:16:18.344Z,99.90
2018-07-02T19:18:46.996Z,99.90
2018-07-02T19:21:15.647Z,99.90
2018-07-02T19:23:44.294Z,99.90
2018-07-02T19:26:12.835Z,99.90
2018-07-02T19:28:41.379Z,99.90
2018-07-02T19:31:10.115Z,99.50
2018-07-02T19:33:38.663Z,99.10
2018-07-02T19:36:08.176Z,98.30
2018-07-02T19:38:36.966Z,98.10
2018-07-02T19:41:06.020Z,97.00
2018-07-02T19:43:34.474Z,97.00
2018-07-02T19:46:03.081Z,96.40
2018-07-02T19:48:31.662Z,99.90
2018-07-02T19:51:00.216Z,95.90
2018-07-02T19:53:28.947Z,94.90
2018-07-02T19:58:26.824Z,95.60
2018-07-02T20:00:55.507Z,94.60
2018-07-02T20:03:24.046Z,94.80
2018-07-02T20:05:52.591Z,95.10
2018-07-02T20:08:21.066Z,94.60
2018-07-02T20:10:49.588Z,94.00
2018-07-02T20:13:18.148Z,94.00
2018-07-02T20:15:46.793Z,94.80
2018-07-02T20:18:15.568Z,93.90
2018-07-02T20:20:44.103Z,93.50
2018-07-02T20:23:13.277Z,92.70
2018-07-02T20:25:41.795Z,91.90
2018-07-02T20:28:10.307Z,90.80
2018-07-02T20:30:38.835Z,90.60
2018-07-02T20:33:07.372Z,90.20
2018-07-02T20:35:36.057Z,90.90
2018-07-02T20:38:04.630Z,90.40
2018-07-02T20:40:33.192Z,89.50
2018-07-02T20:43:03.222Z,89.20
2018-07-02T20:45:31.828Z,90.20
2018-07-02T20:48:00.357Z,89.00
2018-07-02T20:50:29.096Z,88.40
2018-07-02T20:52:57.931Z,89.90
2018-07-02T20:55:26.549Z,88.10
2018-07-02T20:57:55.078Z,87.30
2018-07-02T21:00:23.981Z,86.10
2018-07-02T21:02:52.464Z,86.10
2018-07-02T21:05:20.955Z,85.20
2018-07-02T21:07:49.554Z,84.40
2018-07-02T21:10:18.297Z,84.10
2018-07-02T21:12:46.962Z,82.80
2018-07-02T21:15:16.234Z,82.30
2018-07-02T21:17:44.706Z,82.30
2018-07-02T21:20:13.219Z,87.70
2018-07-02T21:22:41.941Z,80.20
2018-07-02T21:25:10.834Z,78.60
2018-07-02T21:27:39.569Z,78.20
2018-07-02T21:30:09.070Z,77.80
2018-07-02T21:32:38.385Z,77.30
2018-07-02T21:35:07.482Z,94.80
2018-07-02T21:37:36.026Z,77.00
2018-07-02T21:40:04.959Z,77.20
2018-07-02T21:42:33.726Z,76.70
2018-07-02T21:45:02.231Z,76.20
2018-07-02T21:47:30.737Z,75.60
2018-07-02T21:49:59.187Z,75.10
2018-07-02T21:52:27.683Z,74.00
2018-07-02T21:54:56.191Z,74.90
2018-07-02T21:57:24.682Z,73.30
2018-07-02T21:59:53.374Z,72.80
2018-07-02T22:02:21.847Z,72.30
2018-07-02T22:04:50.351Z,70.70
2018-07-02T22:07:18.857Z,70.60
2018-07-02T22:09:47.334Z,71.30
2018-07-02T22:12:15.795Z,70.30
2018-07-02T22:14:44.267Z,70.20
2018-07-02T22:17:12.746Z,71.10
2018-07-02T22:19:41.313Z,69.50
2018-07-02T22:22:09.930Z,69.80
2018-07-02T22:24:38.482Z,69.70
2018-07-02T22:27:06.996Z,69.80
2018-07-02T22:29:35.481Z,70.10
2018-07-02T22:32:03.951Z,70.60
2018-07-02T22:34:32.767Z,69.40
2018-07-02T22:37:01.313Z,69.20
2018-07-02T22:39:29.815Z,69.30
2018-07-02T22:41:58.410Z,69.00
2018-07-02T22:44:26.907Z,69.80
2018-07-02T22:46:55.487Z,69.10
2018-07-02T22:49:24.052Z,66.90
2018-07-02T22:51:52.527Z,67.30
2018-07-02T22:54:20.998Z,65.30
2018-07-02T22:56:49.590Z,65.00
2018-07-02T22:59:18.074Z,63.10
2018-07-02T23:01:46.556Z,61.20
2018-07-02T23:04:15.023Z,63.00
2018-07-02T23:06:43.538Z,60.80
2018-07-02T23:09:12.010Z,59.60
2018-07-02T23:11:40.574Z,58.70
2018-07-02T23:14:09.143Z,57.90
2018-07-02T23:16:37.592Z,59.60
2018-07-02T23:19:06.074Z,58.50
2018-07-02T23:21:34.551Z,58.00
2018-07-02T23:24:03.185Z,57.30
2018-07-02T23:26:31.655Z,56.20
2018-07-02T23:29:00.141Z,58.30
2018-07-02T23:31:28.624Z,57.50
2018-07-02T23:33:57.191Z,56.70
2018-07-02T23:36:25.686Z,57.10
2018-07-02T23:38:54.234Z,56.70
2018-07-02T23:41:22.670Z,57.20
2018-07-02T23:43:51.306Z,58.30
2018-07-02T23:46:19.755Z,57.80
2018-07-02T23:48:48.214Z,57.50
2018-07-02T23:51:16.654Z,57.20
2018-07-02T23:53:45.143Z,56.60
2018-07-02T23:56:13.618Z,54.80
2018-07-02T23:58:42.062Z,55.20
